Time;durP1;ratioP1;P1;durP2;ratioP2;P2;SDS_P1;SDS_P2;PMS_P1;PMS_P2;Temp;Humidity;BMP_temperature;BMP_pressure;BME280_temperature;BME280_humidity;BME280_pressure;Samples;Min_cycle;Max_cycle;Signal;HPM_P1;HPM_P2
2022/01/03 00:00:24;;;;;;;6.10;3.80;;;;;;99272.73;;;;106829;1280;64778;-32
2022/01/03 00:03:09;;;;;;;6.80;3.90;;;;;;99272.69;;;;106925;1280;66018;-32
2022/01/03 00:05:37;;;;;;;6.20;3.70;;;;;;99270.16;;;;106869;1281;64775;-28
2022/01/03 00:08:05;;;;;;;6.60;3.50;;;;;;99272.29;;;;106882;1281;64861;-31
2022/01/03 00:10:34;;;;;;;6.50;3.70;;;;;;99265.20;;;;106912;1281;64890;-35
2022/01/03 00:13:04;;;;;;;5.50;3.40;;;;;;99268.13;;;;106845;1279;64858;-31
2022/01/03 00:15:32;;;;;;;6.30;3.60;;;;;;99260.98;;;;106599;1281;66768;-28
2022/01/03 00:18:00;;;;;;;8.20;3.60;;;;;;99255.13;;;;106875;1281;64903;-26
2022/01/03 00:20:28;;;;;;;6.50;3.30;;;;;;99257.40;;;;106896;1281;64962;-34
2022/01/03 00:22:57;;;;;;;6.00;3.40;;;;;;99257.73;;;;106866;1281;64782;-32
2022/01/03 00:25:25;;;;;;;6.40;3.30;;;;;;99257.63;;;;106984;1280;64902;-32
2022/01/03 00:28:11;;;;;;;5.80;3.30;;;;;;99265.84;;;;106817;1281;65647;-27
2022/01/03 00:30:39;;;;;;;7.00;3.20;;;;;;99256.04;;;;106876;1281;64762;-33
2022/01/03 00:33:07;;;;;;;5.10;3.20;;;;;;99251.72;;;;106937;1280;64840;-30
2022/01/03 00:35:41;;;;;;;5.20;2.80;;;;;;99259.64;;;;106890;1281;64765;-29
2022/01/03 00:38:12;;;;;;;6.40;3.20;;;;;;99266.48;;;;106983;1279;64872;-27
2022/01/03 00:40:40;;;;;;;5.40;3.30;;;;;;99263.09;;;;106901;1281;65207;-28
2022/01/03 00:43:07;;;;;;;5.40;3.10;;;;;;99269.16;;;;106897;1280;64916;-32
2022/01/03 00:45:34;;;;;;;6.70;3.60;;;;;;99258.78;;;;106894;1281;64773;-32
2022/01/03 00:48:09;;;;;;;6.00;2.90;;;;;;99261.25;;;;106886;1281;64889;-33
2022/01/03 00:50:37;;;;;;;6.80;2.90;;;;;;99259.45;;;;106996;1280;64978;-34
2022/01/03 00:53:05;;;;;;;5.90;3.10;;;;;;99256.21;;;;106920;1281;66451;-33
2022/01/03 00:55:33;;;;;;;5.70;3.10;;;;;;99260.19;;;;106916;1281;64782;-34
2022/01/03 00:58:10;;;;;;;6.40;3.10;;;;;;99260.20;;;;106956;1279;64862;-34
2022/01/03 01:00:40;;;;;;;5.60;3.30;;;;;;99250.05;;;;106788;1281;64762;-29
2022/01/03 01:03:14;;;;;;;5.40;3.10;;;;;;99245.60;;;;106671;1281;353845;-32
2022/01/03 01:05:46;;;;;;;6.30;3.10;;;;;;99244.92;;;;106981;1279;67593;-37
2022/01/03 01:08:23;;;;;;;5.30;3.00;;;;;;99244.87;;;;106867;1281;64741;-32
2022/01/03 01:10:51;;;;;;;5.80;3.30;;;;;;99250.86;;;;106934;1280;64959;-30
2022/01/03 01:13:20;;;;;;;5.40;2.80;;;;;;99246.14;;;;106974;1279;64857;-29
2022/01/03 01:15:47;;;;;;;4.80;2.80;;;;;;99239.41;;;;106958;1280;64873;-40
2022/01/03 01:18:15;;;;;;;5.20;3.00;;;;;;99236.60;;;;106901;1281;65843;-28
2022/01/03 01:20:43;;;;;;;4.70;2.80;;;;;;99235.58;;;;106881;1281;64746;-29
2022/01/03 01:23:11;;;;;;;4.80;3.00;;;;;;99236.16;;;;106898;1279;64699;-47
2022/01/03 01:28:13;;;;;;;4.90;2.60;;;;;;99226.46;;;;106936;1279;66454;-28
2022/01/03 01:30:42;;;;;;;5.80;2.80;;;;;;99226.84;;;;106902;1281;67354;-28
2022/01/03 01:33:17;;;;;;;5.90;2.90;;;;;;99218.29;;;;106886;1281;64757;-40
2022/01/03 01:35:56;;;;;;;5.10;2.90;;;;;;99219.86;;;;106785;1278;64823;-38
2022/01/03 01:38:31;;;;;;;4.90;2.80;;;;;;99216.72;;;;106677;1281;65449;-28
2022/01/03 01:41:02;;;;;;;5.00;2.90;;;;;;99220.88;;;;106921;1281;64906;-28
2022/01/03 01:43:40;;;;;;;5.00;2.90;;;;;;99228.98;;;;106905;1281;66395;-43
2022/01/03 01:46:16;;;;;;;5.20;2.90;;;;;;99232.12;;;;106871;1281;64794;-42
2022/01/03 01:48:48;;;;;;;5.30;2.50;;;;;;99236.16;;;;106896;1281;64737;-40
2022/01/03 01:51:20;;;;;;;5.80;2.70;;;;;;99237.20;;;;106901;1281;64790;-43
2022/01/03 01:53:56;;;;;;;5.60;2.80;;;;;;99234.79;;;;106898;1280;64881;-42
2022/01/03 01:56:32;;;;;;;4.50;2.60;;;;;;99234.23;;;;106923;1281;65891;-41
2022/01/03 01:59:34;;;;;;;6.20;2.80;;;;;;99232.29;;;;106894;1281;64963;-28
2022/01/03 02:02:09;;;;;;;4.30;2.60;;;;;;99233.08;;;;106785;1281;64909;-27
2022/01/03 02:04:48;;;;;;;4.80;2.70;;;;;;99237.75;;;;106884;1281;64773;-43
2022/01/03 02:07:34;;;;;;;5.70;2.70;;;;;;99233.33;;;;106884;1281;64996;-43
2022/01/03 02:10:13;;;;;;;5.00;2.70;;;;;;99231.89;;;;106901;1281;67151;-29
2022/01/03 02:12:48;;;;;;;6.20;2.90;;;;;;99227.99;;;;106858;1281;64857;-28
2022/01/03 02:15:18;;;;;;;5.40;2.80;;;;;;99231.20;;;;106691;1281;64740;-28
2022/01/03 02:17:48;;;;;;;8.70;2.70;;;;;;99230.23;;;;106717;1281;64827;-28
2022/01/03 02:20:26;;;;;;;4.80;2.60;;;;;;99221.30;;;;106912;1281;64783;-41
2022/01/03 02:22:55;;;;;;;5.00;2.50;;;;;;99217.55;;;;106921;1281;66089;-42
2022/01/03 02:25:24;;;;;;;5.20;2.70;;;;;;99208.54;;;;106839;1280;64779;-41
2022/01/03 02:27:53;;;;;;;4.50;2.60;;;;;;99205.34;;;;106892;1281;64967;-43
2022/01/03 02:30:29;;;;;;;5.40;2.70;;;;;;99210.66;;;;106751;1281;64890;-28
2022/01/03 02:32:57;;;;;;;6.00;2.80;;;;;;99211.70;;;;106805;1281;64853;-28
2022/01/03 02:35:25;;;;;;;5.10;2.20;;;;;;99208.07;;;;106980;1279;66038;-42
2022/01/03 02:37:54;;;;;;;4.80;2.40;;;;;;99207.21;;;;106782;1281;64715;-43
2022/01/03 02:40:22;;;;;;;5.70;2.50;;;;;;99206.63;;;;106919;1281;65019;-43
2022/01/03 02:42:50;;;;;;;5.40;3.00;;;;;;99207.81;;;;106869;1281;64779;-43
2022/01/03 02:45:22;;;;;;;5.00;2.50;;;;;;99199.88;;;;106780;1281;64773;-42
2022/01/03 02:47:59;;;;;;;5.90;2.60;;;;;;99200.68;;;;106931;1280;66173;-42
2022/01/03 02:50:28;;;;;;;5.90;2.40;;;;;;99202.01;;;;106970;1279;65007;-44
2022/01/03 02:52:56;;;;;;;4.10;2.20;;;;;;99200.95;;;;106917;1279;66398;-43
2022/01/03 02:55:26;;;;;;;5.50;2.80;;;;;;99197.10;;;;106921;1280;64769;-28
2022/01/03 02:57:58;;;;;;;4.60;2.30;;;;;;99193.88;;;;106977;1280;64764;-28
2022/01/03 03:00:30;;;;;;;4.50;2.30;;;;;;99200.96;;;;106957;1280;64913;-42
2022/01/03 03:02:57;;;;;;;5.80;2.60;;;;;;99191.84;;;;106928;1279;64870;-42
2022/01/03 03:05:24;;;;;;;5.00;2.20;;;;;;99191.57;;;;106941;1280;64966;-28
2022/01/03 03:07:55;;;;;;;3.50;1.80;;;;;;99184.21;;;;106927;1279;64920;-29
2022/01/03 03:10:25;;;;;;;4.80;2.50;;;;;;99193.49;;;;106966;1282;64755;-47
2022/01/03 03:12:53;;;;;;;4.40;2.00;;;;;;99188.17;;;;106981;1279;65961;-42
2022/01/03 03:15:21;;;;;;;3.90;2.00;;;;;;99183.74;;;;106940;1279;64877;-42
2022/01/03 03:17:49;;;;;;;4.70;2.30;;;;;;99181.06;;;;106947;1280;64854;-42
2022/01/03 03:20:21;;;;;;;4.50;2.60;;;;;;99184.80;;;;106964;1279;64894;-42
2022/01/03 03:22:50;;;;;;;5.20;2.10;;;;;;99176.80;;;;106955;1280;64812;-42
2022/01/03 03:25:20;;;;;;;4.80;2.20;;;;;;99180.14;;;;106941;1279;66772;-43
2022/01/03 03:27:51;;;;;;;4.50;2.30;;;;;;99179.37;;;;106950;1280;64721;-41
2022/01/03 03:30:27;;;;;;;4.30;2.10;;;;;;99182.52;;;;106990;1279;64997;-28
2022/01/03 03:33:00;;;;;;;4.30;2.10;;;;;;99187.36;;;;106978;1280;64789;-28
2022/01/03 03:35:27;;;;;;;4.80;2.40;;;;;;99189.41;;;;106990;1280;64913;-42
2022/01/03 03:37:54;;;;;;;4.30;2.00;;;;;;99188.73;;;;106942;1280;66009;-50
2022/01/03 03:40:22;;;;;;;4.30;2.20;;;;;;99188.24;;;;106909;1281;64839;-28
2022/01/03 03:42:49;;;;;;;4.80;2.40;;;;;;99192.19;;;;106969;1281;64769;-28
2022/01/03 03:45:16;;;;;;;3.80;2.00;;;;;;99189.98;;;;106944;1280;66008;-42
2022/01/03 03:47:44;;;;;;;4.50;2.30;;;;;;99186.86;;;;106962;1280;64802;-43
2022/01/03 03:50:12;;;;;;;4.50;2.10;;;;;;99189.84;;;;106929;1281;66119;-43
2022/01/03 03:52:39;;;;;;;5.20;2.10;;;;;;99193.33;;;;106954;1279;64776;-43
2022/01/03 03:55:07;;;;;;;4.00;1.90;;;;;;99187.41;;;;106945;1279;64765;-28
2022/01/03 03:57:35;;;;;;;4.20;2.30;;;;;;99186.35;;;;106933;1279;64862;-30
2022/01/03 04:00:06;;;;;;;4.70;2.10;;;;;;99187.85;;;;106968;1279;64867;-41
2022/01/03 04:02:34;;;;;;;4.30;2.00;;;;;;99184.52;;;;106932;1284;67210;-29
2022/01/03 04:05:01;;;;;;;4.10;2.20;;;;;;99185.63;;;;106708;1279;64918;-28
2022/01/03 04:07:29;;;;;;;4.30;2.10;;;;;;99185.71;;;;106895;1281;64787;-27
2022/01/03 04:09:56;;;;;;;3.90;1.90;;;;;;99187.23;;;;106933;1281;64787;-42
2022/01/03 04:12:23;;;;;;;4.40;2.00;;;;;;99187.29;;;;106976;1279;64746;-42
2022/01/03 04:14:50;;;;;;;4.00;1.80;;;;;;99183.67;;;;106930;1281;66932;-26
2022/01/03 04:17:17;;;;;;;4.90;2.10;;;;;;99181.01;;;;106867;1281;64781;-30
2022/01/03 04:19:44;;;;;;;4.20;2.20;;;;;;99177.25;;;;106898;1284;64824;-28
2022/01/03 04:22:12;;;;;;;4.50;1.80;;;;;;99181.25;;;;106938;1283;65082;-28
2022/01/03 04:24:39;;;;;;;4.30;2.00;;;;;;99183.27;;;;106950;1281;64798;-31
2022/01/03 04:27:06;;;;;;;5.60;2.10;;;;;;99183.20;;;;106932;1279;67480;-27
2022/01/03 04:29:33;;;;;;;4.60;2.20;;;;;;99176.63;;;;106944;1279;65444;-28
2022/01/03 04:32:01;;;;;;;4.00;2.00;;;;;;99171.86;;;;106951;1284;64767;-28
2022/01/03 04:34:27;;;;;;;4.30;2.00;;;;;;99175.52;;;;106945;1279;64769;-28
2022/01/03 04:36:55;;;;;;;4.40;2.00;;;;;;99171.14;;;;106931;1278;64962;-28
2022/01/03 04:39:23;;;;;;;4.80;1.90;;;;;;99175.23;;;;106894;1281;67790;-44
2022/01/03 04:41:50;;;;;;;4.40;2.10;;;;;;99171.45;;;;106977;1281;64881;-44
2022/01/03 04:44:18;;;;;;;5.10;2.10;;;;;;99175.14;;;;106917;1281;64770;-45
2022/01/03 04:46:45;;;;;;;3.60;2.00;;;;;;99180.35;;;;106936;1281;64759;-49
2022/01/03 04:49:12;;;;;;;5.00;2.40;;;;;;99189.71;;;;106980;1281;64872;-29
2022/01/03 04:51:42;;;;;;;4.50;2.40;;;;;;99186.20;;;;106945;1281;64934;-26
2022/01/03 04:54:09;;;;;;;4.00;1.90;;;;;;99184.98;;;;106911;1281;64787;-42
2022/01/03 04:56:36;;;;;;;4.20;2.00;;;;;;99179.89;;;;106923;1281;64871;-42
2022/01/03 04:59:03;;;;;;;4.30;2.10;;;;;;99189.26;;;;106900;1281;64749;-42
2022/01/03 05:01:31;;;;;;;4.80;2.30;;;;;;99189.34;;;;106926;1279;64877;-41
2022/01/03 05:03:58;;;;;;;4.90;2.40;;;;;;99187.19;;;;106922;1279;66228;-28
2022/01/03 05:06:25;;;;;;;4.00;2.10;;;;;;99185.48;;;;106925;1281;64995;-28
2022/01/03 05:08:53;;;;;;;4.50;2.20;;;;;;99190.87;;;;106902;1278;64862;-46
2022/01/03 05:11:20;;;;;;;4.80;2.40;;;;;;99188.10;;;;106916;1281;64911;-43
2022/01/03 05:13:47;;;;;;;4.20;2.20;;;;;;99190.45;;;;106937;1279;64998;-42
2022/01/03 05:16:16;;;;;;;4.70;2.30;;;;;;99198.86;;;;106917;1281;65665;-42
2022/01/03 05:18:44;;;;;;;4.90;2.20;;;;;;99202.20;;;;106899;1281;65934;-27
2022/01/03 05:21:11;;;;;;;4.00;2.00;;;;;;99208.46;;;;106925;1280;64864;-28
2022/01/03 05:23:38;;;;;;;4.00;2.00;;;;;;99201.50;;;;106873;1281;64786;-28
2022/01/03 05:26:05;;;;;;;5.50;2.20;;;;;;99199.79;;;;106919;1281;64796;-28
2022/01/03 05:28:33;;;;;;;3.80;2.10;;;;;;99194.56;;;;106961;1281;65983;-27
2022/01/03 05:31:01;;;;;;;4.00;2.10;;;;;;99190.16;;;;106922;1281;64755;-35
2022/01/03 05:33:28;;;;;;;4.60;1.90;;;;;;99195.30;;;;106920;1281;64867;-42
2022/01/03 05:35:55;;;;;;;4.20;2.00;;;;;;99198.26;;;;106915;1281;64886;-43
2022/01/03 05:38:23;;;;;;;4.10;2.00;;;;;;99201.39;;;;106905;1281;64793;-42
2022/01/03 05:40:50;;;;;;;4.20;2.20;;;;;;99201.88;;;;106933;1279;66572;-42
2022/01/03 05:43:18;;;;;;;5.20;2.80;;;;;;99200.36;;;;106920;1279;64891;-28
2022/01/03 05:45:46;;;;;;;4.20;1.90;;;;;;99198.90;;;;106937;1281;64760;-28
2022/01/03 05:48:13;;;;;;;4.80;2.10;;;;;;99201.23;;;;106921;1281;64794;-42
2022/01/03 05:50:40;;;;;;;4.60;2.30;;;;;;99198.33;;;;106936;1281;65314;-43
2022/01/03 05:53:08;;;;;;;5.00;2.40;;;;;;99199.28;;;;106914;1281;65208;-39
2022/01/03 05:55:35;;;;;;;4.20;2.10;;;;;;99193.65;;;;106893;1281;64779;-42
2022/01/03 05:58:02;;;;;;;3.60;1.90;;;;;;99195.11;;;;106901;1281;64876;-42
2022/01/03 06:00:30;;;;;;;4.40;2.10;;;;;;99193.58;;;;106941;1281;64990;-28
2022/01/03 06:02:58;;;;;;;4.00;2.00;;;;;;99196.33;;;;106941;1281;64772;-27
2022/01/03 06:05:41;;;;;;;4.60;2.70;;;;;;99192.20;;;;106973;1281;66246;-29
2022/01/03 06:08:08;;;;;;;4.20;1.90;;;;;;99196.65;;;;106907;1281;65005;-28
2022/01/03 06:10:40;;;;;;;3.50;1.70;;;;;;99199.35;;;;106934;1281;64868;-28
2022/01/03 06:13:08;;;;;;;3.80;1.80;;;;;;99196.40;;;;106942;1281;64787;-38
2022/01/03 06:15:39;;;;;;;4.40;2.00;;;;;;99194.83;;;;106975;1280;64813;-51
2022/01/03 06:18:12;;;;;;;5.50;2.30;;;;;;99196.55;;;;106967;1281;65900;-47
2022/01/03 06:20:44;;;;;;;4.30;1.90;;;;;;99201.52;;;;106929;1281;64761;-41
2022/01/03 06:23:14;;;;;;;3.90;1.70;;;;;;99201.11;;;;106926;1278;64896;-40
2022/01/03 06:25:41;;;;;;;3.90;2.00;;;;;;99200.30;;;;106875;1281;64818;-43
2022/01/03 06:28:09;;;;;;;4.80;2.00;;;;;;99203.55;;;;106927;1279;64772;-40
2022/01/03 06:30:39;;;;;;;3.90;1.90;;;;;;99211.61;;;;106921;1281;64968;-42
2022/01/03 06:33:08;;;;;;;4.20;2.00;;;;;;99209.64;;;;106931;1279;64849;-33
2022/01/03 06:35:35;;;;;;;4.20;2.00;;;;;;99213.38;;;;106936;1278;66124;-41
2022/01/03 06:38:06;;;;;;;4.20;1.90;;;;;;99215.72;;;;106925;1279;64876;-41
2022/01/03 06:40:34;;;;;;;4.40;2.00;;;;;;99217.41;;;;106934;1281;64970;-41
2022/01/03 06:43:02;;;;;;;3.80;1.90;;;;;;99218.91;;;;106917;1279;64873;-42
2022/01/03 06:45:31;;;;;;;3.60;1.80;;;;;;99226.90;;;;106891;1281;64995;-42
2022/01/03 06:47:59;;;;;;;3.90;2.00;;;;;;99226.77;;;;106892;1281;64772;-42
2022/01/03 06:50:28;;;;;;;4.40;2.10;;;;;;99228.73;;;;106895;1279;65495;-27
2022/01/03 06:52:56;;;;;;;4.60;1.80;;;;;;99225.58;;;;106932;1279;65432;-27
2022/01/03 06:55:23;;;;;;;4.00;1.90;;;;;;99224.91;;;;106943;1279;66393;-41
2022/01/03 06:57:51;;;;;;;4.10;2.00;;;;;;99224.48;;;;106922;1278;64796;-42
2022/01/03 07:00:18;;;;;;;3.70;1.90;;;;;;99220.23;;;;107007;1277;64854;-42
2022/01/03 07:02:45;;;;;;;4.90;2.20;;;;;;99221.69;;;;106961;1277;64816;-41
2022/01/03 07:05:14;;;;;;;4.70;2.20;;;;;;99217.75;;;;107018;1277;64788;-42
2022/01/03 07:07:41;;;;;;;4.10;2.00;;;;;;99218.45;;;;106985;1277;64850;-42
2022/01/03 07:10:10;;;;;;;4.10;1.80;;;;;;99215.25;;;;106965;1277;64814;-43
2022/01/03 07:12:38;;;;;;;3.80;1.90;;;;;;99220.11;;;;107007;1278;64881;-42
2022/01/03 07:20:40;;;;;;;4.30;2.60;;;;;;99216.93;;;;106985;1277;67877;-31
2022/01/03 07:23:08;;;;;;;4.40;2.10;;;;;;99221.70;;;;106976;1278;64853;-34
2022/01/03 07:25:36;;;;;;;3.70;1.70;;;;;;99225.02;;;;106989;1278;65364;-43
2022/01/03 07:28:06;;;;;;;6.10;1.80;;;;;;99226.36;;;;106964;1277;64918;-43
2022/01/03 07:30:33;;;;;;;4.20;1.80;;;;;;99229.48;;;;106994;1279;64745;-33
2022/01/03 07:33:01;;;;;;;4.90;2.20;;;;;;99228.73;;;;106978;1277;67089;-27
2022/01/03 07:35:28;;;;;;;3.70;2.00;;;;;;99232.70;;;;106877;1281;65017;-27
2022/01/03 07:37:55;;;;;;;5.50;2.00;;;;;;99231.60;;;;106962;1277;66087;-32
2022/01/03 07:40:23;;;;;;;4.10;2.00;;;;;;99232.20;;;;106881;1279;64949;-41
2022/01/03 07:42:51;;;;;;;4.30;2.00;;;;;;99231.17;;;;107022;1277;64905;-39
2022/01/03 07:45:19;;;;;;;4.50;2.00;;;;;;99231.39;;;;107005;1277;64767;-28
2022/01/03 07:47:46;;;;;;;3.90;1.90;;;;;;99232.35;;;;106937;1278;64833;-28
2022/01/03 07:50:14;;;;;;;4.50;2.00;;;;;;99230.89;;;;106970;1278;64847;-27
2022/01/03 07:52:42;;;;;;;4.10;2.00;;;;;;99234.30;;;;106974;1277;64868;-29
2022/01/03 07:55:11;;;;;;;4.30;2.00;;;;;;99228.94;;;;107017;1277;64262;-29
2022/01/03 07:57:39;;;;;;;4.20;2.00;;;;;;99228.31;;;;106984;1278;66009;-34
2022/01/03 08:00:14;;;;;;;4.70;1.90;;;;;;99225.38;;;;106903;1279;64847;-43
2022/01/03 08:02:42;;;;;;;4.90;2.00;;;;;;99224.41;;;;107024;1277;64842;-41
2022/01/03 08:05:13;;;;;;;4.90;2.00;;;;;;99219.73;;;;107001;1278;64976;-42
2022/01/03 08:07:45;;;;;;;5.60;2.10;;;;;;99218.89;;;;107010;1277;64891;-43
2022/01/03 08:10:14;;;;;;;4.40;2.00;;;;;;99216.93;;;;107017;1278;66878;-31
2022/01/03 08:12:44;;;;;;;4.10;2.00;;;;;;99218.23;;;;106922;1278;65004;-27
2022/01/03 08:15:11;;;;;;;4.40;2.10;;;;;;99223.21;;;;106958;1277;64748;-42
2022/01/03 08:17:39;;;;;;;4.70;2.20;;;;;;99219.45;;;;106967;1277;64768;-43
2022/01/03 08:20:07;;;;;;;4.00;2.30;;;;;;99220.93;;;;106989;1277;64927;-32
2022/01/03 08:22:35;;;;;;;5.20;2.20;;;;;;99217.94;;;;106937;1278;64795;-27
2022/01/03 08:25:03;;;;;;;5.10;2.10;;;;;;99218.89;;;;106869;1278;64944;-42
2022/01/03 08:27:30;;;;;;;5.20;2.30;;;;;;99216.02;;;;107014;1277;64760;-41
2022/01/03 08:29:58;;;;;;;3.90;2.00;;;;;;99215.98;;;;106900;1279;64745;-30
2022/01/03 08:32:26;;;;;;;4.70;2.20;;;;;;99218.30;;;;107013;1278;64894;-30
2022/01/03 08:34:54;;;;;;;4.70;2.10;;;;;;99216.85;;;;107056;1277;65792;-41
2022/01/03 08:37:21;;;;;;;4.50;2.20;;;;;;99215.51;;;;106978;1278;64812;-40
2022/01/03 08:39:48;;;;;;;4.50;2.40;;;;;;99215.33;;;;106890;1279;63893;-27
2022/01/03 08:42:15;;;;;;;5.40;2.60;;;;;;99212.59;;;;106929;1279;64765;-26
2022/01/03 08:44:43;;;;;;;5.10;2.30;;;;;;99215.55;;;;106991;1278;63610;-39
2022/01/03 08:47:10;;;;;;;5.20;2.50;;;;;;99216.61;;;;106917;1279;64866;-48
2022/01/03 08:49:37;;;;;;;4.60;2.20;;;;;;99217.38;;;;106887;1278;64986;-28
2022/01/03 08:52:05;;;;;;;5.00;2.20;;;;;;99218.05;;;;107003;1278;64762;-28
2022/01/03 08:54:32;;;;;;;4.80;2.30;;;;;;99215.80;;;;107015;1278;64730;-30
2022/01/03 08:57:00;;;;;;;5.00;2.60;;;;;;99219.11;;;;106920;1279;64883;-28
2022/01/03 08:59:27;;;;;;;4.70;2.50;;;;;;99220.48;;;;106948;1279;64957;-27
2022/01/03 09:01:54;;;;;;;5.30;2.70;;;;;;99222.38;;;;106599;1277;508457;-28
2022/01/03 09:04:21;;;;;;;5.50;2.50;;;;;;99223.50;;;;106907;1279;64834;-31
2022/01/03 09:06:51;;;;;;;5.50;2.60;;;;;;99223.52;;;;106876;1278;64888;-29
2022/01/03 09:09:19;;;;;;;5.90;2.60;;;;;;99230.04;;;;106919;1279;64785;-27
2022/01/03 09:11:47;;;;;;;5.50;2.90;;;;;;99229.38;;;;106924;1278;65635;-30
2022/01/03 09:14:14;;;;;;;4.70;2.70;;;;;;99230.42;;;;106997;1277;64702;-27
2022/01/03 09:16:41;;;;;;;6.40;2.90;;;;;;99224.57;;;;106916;1279;65020;-28
2022/01/03 09:19:09;;;;;;;5.30;2.70;;;;;;99227.52;;;;106941;1277;64889;-38
2022/01/03 09:21:36;;;;;;;5.10;2.40;;;;;;99226.41;;;;106993;1278;64769;-35
2022/01/03 09:24:29;;;;;;;5.30;2.70;;;;;;99227.31;;;;106869;1281;66786;-27
2022/01/03 09:29:41;;;;;;;4.80;2.60;;;;;;99221.45;;;;106988;1277;64767;-27
2022/01/03 09:32:08;;;;;;;5.30;2.40;;;;;;99223.14;;;;106978;1278;64760;-26
2022/01/03 09:34:35;;;;;;;6.20;2.90;;;;;;99218.75;;;;106979;1277;64781;-45
2022/01/03 09:37:03;;;;;;;5.60;3.20;;;;;;99214.13;;;;107011;1278;66104;-48
2022/01/03 09:39:30;;;;;;;4.50;2.70;;;;;;99212.48;;;;106973;1277;64775;-50
2022/01/03 09:42:06;;;;;;;7.60;3.20;;;;;;99209.86;;;;106996;1277;64869;-52
2022/01/03 09:44:35;;;;;;;6.80;3.70;;;;;;99209.64;;;;106949;1277;65080;-25
2022/01/03 09:47:05;;;;;;;7.00;3.20;;;;;;99210.36;;;;107003;1277;64740;-25
2022/01/03 09:49:36;;;;;;;6.00;3.10;;;;;;99208.64;;;;106917;1277;64762;-27
2022/01/03 09:52:07;;;;;;;7.40;3.70;;;;;;99207.27;;;;106900;1278;64767;-27
2022/01/03 09:54:36;;;;;;;8.00;3.40;;;;;;99206.02;;;;106997;1277;64894;-26
2022/01/03 09:57:05;;;;;;;6.50;3.10;;;;;;99206.88;;;;106977;1277;64680;-25
2022/01/03 09:59:33;;;;;;;6.60;3.40;;;;;;99204.91;;;;107003;1277;64766;-34
2022/01/03 10:02:04;;;;;;;5.80;3.40;;;;;;99200.86;;;;106925;1278;66131;-34
2022/01/03 10:04:32;;;;;;;6.60;2.90;;;;;;99201.28;;;;106989;1277;64728;-34
2022/01/03 10:07:02;;;;;;;8.30;3.60;;;;;;99200.98;;;;106982;1278;65104;-35
2022/01/03 10:09:29;;;;;;;5.90;3.00;;;;;;99201.16;;;;106966;1278;64864;-35
2022/01/03 10:11:56;;;;;;;7.30;3.50;;;;;;99200.53;;;;106988;1277;64892;-38
2022/01/03 10:14:24;;;;;;;6.20;3.40;;;;;;99200.30;;;;106891;1278;65916;-25
2022/01/03 10:16:51;;;;;;;5.30;2.60;;;;;;99199.45;;;;106885;1278;64744;-24
2022/01/03 10:19:18;;;;;;;7.50;3.50;;;;;;99199.05;;;;106888;1279;65434;-28
2022/01/03 10:21:49;;;;;;;7.00;3.30;;;;;;99200.83;;;;106967;1278;64777;-34
2022/01/03 10:24:19;;;;;;;6.60;3.30;;;;;;99196.92;;;;106900;1277;64741;-25
2022/01/03 10:26:55;;;;;;;5.70;3.10;;;;;;99195.27;;;;107003;1277;66140;-28
2022/01/03 10:29:26;;;;;;;6.70;3.10;;;;;;99195.83;;;;106615;1281;64014;-25
2022/01/03 10:31:56;;;;;;;5.80;2.70;;;;;;99194.42;;;;106994;1277;64963;-30
2022/01/03 10:34:25;;;;;;;6.80;3.10;;;;;;99195.13;;;;106872;1279;64836;-38
2022/01/03 10:36:56;;;;;;;6.20;3.20;;;;;;99196.49;;;;106641;1279;64798;-33
2022/01/03 10:39:25;;;;;;;6.30;2.80;;;;;;99195.02;;;;106987;1277;64878;-38
2022/01/03 10:42:18;;;;;;;5.20;3.00;;;;;;99195.88;;;;106965;1277;64742;-32
2022/01/03 10:44:47;;;;;;;5.80;3.20;;;;;;99193.89;;;;106882;1279;64891;-33
2022/01/03 10:47:32;;;;;;;5.60;2.90;;;;;;99192.80;;;;106895;1278;64927;-33
2022/01/03 10:49:59;;;;;;;5.30;2.80;;;;;;99193.29;;;;107004;1278;64779;-33
2022/01/03 10:52:31;;;;;;;6.10;2.90;;;;;;99197.81;;;;106934;1279;66957;-33
2022/01/03 10:55:18;;;;;;;4.90;2.90;;;;;;99200.21;;;;106900;1277;64776;-33
2022/01/03 10:57:54;;;;;;;5.10;2.80;;;;;;99200.48;;;;106908;1277;64749;-32
2022/01/03 11:00:39;;;;;;;5.10;2.90;;;;;;99201.89;;;;106956;1277;64859;-26
2022/01/03 11:03:31;;;;;;;6.10;2.90;;;;;;99201.21;;;;106888;1279;64863;-28
2022/01/03 11:11:43;;;;;;;5.20;2.90;;;;;;99203.13;;;;106919;1278;64869;-38
2022/01/03 11:14:30;;;;;;;5.90;3.20;;;;;;99197.20;;;;106976;1278;64806;-33
2022/01/03 11:16:57;;;;;;;4.30;2.60;;;;;;99195.48;;;;106919;1278;64961;-33
2022/01/03 11:19:39;;;;;;;5.60;2.80;;;;;;99195.22;;;;106726;1278;66382;-32
2022/01/03 11:22:06;;;;;;;6.00;2.80;;;;;;99194.90;;;;106983;1277;64862;-34
2022/01/03 11:24:47;;;;;;;6.20;2.50;;;;;;99193.40;;;;106898;1278;64757;-27
2022/01/03 11:27:15;;;;;;;4.70;2.60;;;;;;99191.84;;;;106862;1278;64813;-26
2022/01/03 11:29:42;;;;;;;5.50;2.60;;;;;;99189.85;;;;106950;1278;65602;-29
2022/01/03 11:32:10;;;;;;;6.20;2.80;;;;;;99188.95;;;;106969;1277;65681;-26
2022/01/03 11:34:41;;;;;;;6.40;3.00;;;;;;99183.20;;;;106932;1279;64871;-32
2022/01/03 11:37:08;;;;;;;4.90;2.50;;;;;;99184.46;;;;106914;1279;64937;-33
2022/01/03 11:39:36;;;;;;;5.80;2.90;;;;;;99182.05;;;;106901;1279;65001;-26
2022/01/03 11:42:04;;;;;;;5.60;2.80;;;;;;99182.27;;;;106918;1278;64747;-26
2022/01/03 11:44:32;;;;;;;5.50;2.50;;;;;;99180.23;;;;106959;1279;67106;-27
2022/01/03 11:47:00;;;;;;;4.70;2.40;;;;;;99181.89;;;;106917;1279;64887;-27
2022/01/03 11:49:28;;;;;;;5.70;2.60;;;;;;99178.01;;;;107003;1277;64785;-24
2022/01/03 11:52:00;;;;;;;5.60;2.50;;;;;;99177.30;;;;107021;1277;64764;-25
2022/01/03 11:54:28;;;;;;;6.20;2.80;;;;;;99176.36;;;;106832;1279;63569;-23
2022/01/03 11:57:22;;;;;;;6.30;2.50;;;;;;99178.80;;;;107014;1277;65969;-24
2022/01/03 12:05:57;;;;;;;6.30;2.60;;;;;;99176.17;;;;106991;1278;64924;-24
2022/01/03 12:08:34;;;;;;;6.20;2.50;;;;;;99177.64;;;;106905;1278;64979;-25
2022/01/03 12:11:20;;;;;;;4.80;2.30;;;;;;99176.95;;;;106951;1278;66177;-25
2022/01/03 12:14:04;;;;;;;4.70;2.40;;;;;;99176.58;;;;106845;1279;64865;-33
2022/01/03 12:16:54;;;;;;;5.40;2.40;;;;;;99181.14;;;;106910;1278;64891;-31
2022/01/03 12:19:46;;;;;;;5.40;2.30;;;;;;99182.90;;;;106858;1279;64774;-28
2022/01/03 12:22:17;;;;;;;5.20;2.40;;;;;;99182.16;;;;106922;1279;64777;-27
2022/01/03 12:25:02;;;;;;;4.70;2.20;;;;;;99180.48;;;;106966;1278;67042;-31
2022/01/03 12:27:39;;;;;;;5.30;2.10;;;;;;99185.38;;;;106979;1278;64899;-32
2022/01/03 12:30:11;;;;;;;5.30;2.50;;;;;;99189.75;;;;106872;1278;64834;-26
2022/01/03 12:32:45;;;;;;;5.90;2.60;;;;;;99190.20;;;;106991;1277;64908;-26
2022/01/03 12:35:20;;;;;;;6.00;2.60;;;;;;99191.27;;;;106923;1278;64791;-33
2022/01/03 12:38:14;;;;;;;5.00;2.40;;;;;;99195.80;;;;106896;1279;65999;-34
2022/01/03 12:40:56;;;;;;;;;;;;;;99197.27;;;;106909;1278;64865;-26
2022/01/03 12:43:45;;;;;;;6.00;2.40;;;;;;99201.48;;;;106922;1279;65969;-26
2022/01/03 12:46:19;;;;;;;5.20;2.10;;;;;;99201.66;;;;106863;1279;64790;-26
2022/01/03 12:48:46;;;;;;;6.80;2.20;;;;;;99199.27;;;;106951;1277;64745;-27
2022/01/03 12:51:15;;;;;;;6.70;2.40;;;;;;99202.15;;;;106804;1279;66563;-26
2022/01/03 12:53:49;;;;;;;6.00;2.30;;;;;;99204.20;;;;106941;1278;64915;-25
2022/01/03 12:56:27;;;;;;;5.70;2.10;;;;;;99208.64;;;;106890;1279;64774;-36
2022/01/03 12:58:56;;;;;;;5.50;2.40;;;;;;99213.33;;;;106946;1278;65005;-24
2022/01/03 13:01:28;;;;;;;5.50;2.30;;;;;;99215.81;;;;107023;1278;64613;-26
2022/01/03 13:03:58;;;;;;;5.30;2.10;;;;;;99218.10;;;;107049;1277;65884;-34
2022/01/03 13:06:30;;;;;;;4.80;2.30;;;;;;99221.56;;;;106936;1278;64746;-35
2022/01/03 13:08:57;;;;;;;5.30;1.90;;;;;;99228.13;;;;107017;1278;65013;-36
2022/01/03 13:11:32;;;;;;;5.00;2.20;;;;;;99236.01;;;;106936;1278;64975;-41
2022/01/03 13:14:12;;;;;;;4.70;2.00;;;;;;99234.94;;;;106898;1279;63618;-30
2022/01/03 13:16:55;;;;;;;5.40;2.00;;;;;;99243.25;;;;106972;1277;65938;-30
2022/01/03 13:19:29;;;;;;;5.50;2.40;;;;;;99241.52;;;;106964;1278;64728;-26
2022/01/03 13:22:00;;;;;;;4.50;2.10;;;;;;99257.04;;;;106907;1278;64847;-27
2022/01/03 13:24:44;;;;;;;4.70;2.00;;;;;;99258.15;;;;106535;1282;64795;-33
2022/01/03 13:27:22;;;;;;;5.20;2.50;;;;;;99259.70;;;;106897;1278;64963;-37
2022/01/03 13:29:57;;;;;;;5.50;2.00;;;;;;99265.58;;;;106906;1278;66156;-27
2022/01/03 13:32:30;;;;;;;4.70;2.00;;;;;;99271.72;;;;106930;1278;64874;-27
2022/01/03 13:35:03;;;;;;;5.30;2.60;;;;;;99274.08;;;;106883;1279;64877;-28
2022/01/03 13:37:32;;;;;;;4.50;2.10;;;;;;99274.73;;;;106884;1278;64717;-27